UPS414 SACO-SABE
Flight info
| Callsign | UPS414 |
|---|---|
| Flight time | N/A |
| Altitude | 37000 |
| Route | SACO/05 UTRAX UW24 SNT SNT9R |
| Aircraft | MD11/H-SDE1E2E3FGHIJ2J3J4J5M1RWXY/LB1D1 |
Departure
| Time | N/A |
|---|---|
| Airport | Ingeniero Aeronáutico Ambrosio L.V. Taravella International Airport (SACO) |
Arrival
| Time | 2026-05-03 21:05 |
|---|---|
| Airport | Aeroparque Jorge Newbery (SABE) |
| Time | Latitude | Longitude | Altitude | Speed | Heading |
|---|---|---|---|---|---|
| 2026-05-03 20:15 | -31.53860 | -63.81896 | 14270 ft | 378 kts | 133° |
| 2026-05-03 20:15 | -31.55682 | -63.79512 | 14389 ft | 407 kts | 134° |
| 2026-05-03 20:15 | -31.57624 | -63.76972 | 14751 ft | 426 kts | 134° |
| 2026-05-03 20:15 | -31.59618 | -63.74372 | 15396 ft | 434 kts | 134° |
| 2026-05-03 20:16 | -31.61640 | -63.71729 | 16109 ft | 440 kts | 134° |
| 2026-05-03 20:16 | -31.63684 | -63.69054 | 16803 ft | 444 kts | 133° |
| 2026-05-03 20:16 | -31.65748 | -63.66353 | 17487 ft | 448 kts | 133° |
| 2026-05-03 20:16 | -31.67837 | -63.63614 | 18183 ft | 454 kts | 134° |
| 2026-05-03 20:17 | -31.69949 | -63.60844 | 18926 ft | 459 kts | 134° |
| 2026-05-03 20:17 | -31.72085 | -63.58043 | 19780 ft | 463 kts | 135° |
| 2026-05-03 20:17 | -31.74240 | -63.55220 | 20628 ft | 467 kts | 136° |
| 2026-05-03 20:17 | -31.76419 | -63.52387 | 21302 ft | 471 kts | 136° |
| 2026-05-03 20:18 | -31.78620 | -63.49518 | 21975 ft | 475 kts | 136° |
| 2026-05-03 20:18 | -31.80834 | -63.46626 | 22684 ft | 479 kts | 137° |
| 2026-05-03 20:18 | -31.83065 | -63.43713 | 23319 ft | 483 kts | 137° |
| 2026-05-03 20:18 | -31.85319 | -63.40774 | 23957 ft | 487 kts | 137° |
| 2026-05-03 20:19 | -31.87566 | -63.37780 | 24583 ft | 492 kts | 136° |
| 2026-05-03 20:19 | -31.89778 | -63.34690 | 25168 ft | 498 kts | 134° |
| 2026-05-03 20:19 | -31.91962 | -63.31507 | 25764 ft | 503 kts | 133° |
| 2026-05-03 20:19 | -31.94128 | -63.28261 | 26408 ft | 505 kts | 133° |
| 2026-05-03 20:20 | -31.96290 | -63.25007 | 27037 ft | 508 kts | 133° |
| 2026-05-03 20:20 | -31.98475 | -63.21725 | 27549 ft | 513 kts | 133° |
| 2026-05-03 20:20 | -32.00679 | -63.18415 | 28123 ft | 515 kts | 133° |
| 2026-05-03 20:20 | -32.02891 | -63.15089 | 28795 ft | 516 kts | 133° |
| 2026-05-03 20:21 | -32.05084 | -63.11789 | 29651 ft | 513 kts | 134° |
| 2026-05-03 20:21 | -32.07275 | -63.08496 | 30395 ft | 510 kts | 134° |
| 2026-05-03 20:21 | -32.09456 | -63.05224 | 31100 ft | 509 kts | 134° |
| 2026-05-03 20:21 | -32.11651 | -63.01928 | 31838 ft | 506 kts | 134° |
| 2026-05-03 20:22 | -32.13823 | -62.98677 | 32447 ft | 504 kts | 134° |
| 2026-05-03 20:22 | -32.16005 | -62.95404 | 33142 ft | 501 kts | 134° |
| 2026-05-03 20:22 | -32.18190 | -62.92133 | 33697 ft | 500 kts | 134° |
| 2026-05-03 20:22 | -32.20386 | -62.88845 | 34246 ft | 499 kts | 135° |
| 2026-05-03 20:23 | -32.22541 | -62.85620 | 34755 ft | 498 kts | 135° |
| 2026-05-03 20:23 | -32.24704 | -62.82387 | 35162 ft | 498 kts | 135° |
| 2026-05-03 20:23 | -32.26848 | -62.79183 | 35346 ft | 496 kts | 135° |
| 2026-05-03 20:23 | -32.28982 | -62.75998 | 35631 ft | 495 kts | 135° |
| 2026-05-03 20:24 | -32.31112 | -62.72811 | 35969 ft | 494 kts | 135° |
| 2026-05-03 20:24 | -32.33235 | -62.69635 | 36680 ft | 492 kts | 135° |
| 2026-05-03 20:24 | -32.35349 | -62.66474 | 36750 ft | 490 kts | 135° |
| 2026-05-03 20:24 | -32.37456 | -62.63336 | 36966 ft | 489 kts | 135° |
| 2026-05-03 20:25 | -32.39574 | -62.60180 | 37060 ft | 492 kts | 135° |
| 2026-05-03 20:25 | -32.41701 | -62.57004 | 37305 ft | 495 kts | 135° |
| 2026-05-03 20:25 | -32.43834 | -62.53813 | 37052 ft | 497 kts | 135° |
| 2026-05-03 20:25 | -32.45961 | -62.50595 | 36928 ft | 497 kts | 135° |
| 2026-05-03 20:26 | -32.48074 | -62.47361 | 37017 ft | 496 kts | 135° |
| 2026-05-03 20:26 | -32.52305 | -62.40916 | 37005 ft | 497 kts | 135° |
| 2026-05-03 20:27 | -32.56538 | -62.34474 | 37007 ft | 496 kts | 135° |
| 2026-05-03 20:27 | -32.60787 | -62.28020 | 37002 ft | 496 kts | 135° |
| 2026-05-03 20:28 | -32.65027 | -62.21587 | 37011 ft | 496 kts | 135° |
| 2026-05-03 20:28 | -32.69193 | -62.15069 | 37008 ft | 499 kts | 133° |
| 2026-05-03 20:29 | -32.73157 | -62.08313 | 37006 ft | 499 kts | 131° |
| 2026-05-03 20:29 | -32.77065 | -62.01522 | 37001 ft | 498 kts | 131° |
| 2026-05-03 20:30 | -32.80973 | -61.94744 | 36998 ft | 498 kts | 131° |
| 2026-05-03 20:30 | -32.84884 | -61.87970 | 36997 ft | 498 kts | 131° |
| 2026-05-03 20:31 | -32.88797 | -61.81197 | 37018 ft | 498 kts | 131° |
| 2026-05-03 20:31 | -32.92714 | -61.74425 | 37016 ft | 498 kts | 131° |
| 2026-05-03 20:32 | -32.96635 | -61.67653 | 37024 ft | 497 kts | 131° |
| 2026-05-03 20:32 | -33.00548 | -61.60901 | 37026 ft | 497 kts | 131° |
| 2026-05-03 20:33 | -33.04470 | -61.54142 | 37022 ft | 497 kts | 131° |
| 2026-05-03 20:33 | -33.08394 | -61.47382 | 37013 ft | 497 kts | 132° |
| 2026-05-03 20:34 | -33.12315 | -61.40636 | 37016 ft | 496 kts | 132° |
| 2026-05-03 20:34 | -33.16232 | -61.33905 | 37006 ft | 495 kts | 131° |
| 2026-05-03 20:35 | -33.20145 | -61.27153 | 37009 ft | 496 kts | 131° |
| 2026-05-03 20:35 | -33.24016 | -61.20349 | 37027 ft | 497 kts | 131° |
| 2026-05-03 20:36 | -33.27898 | -61.13548 | 37029 ft | 496 kts | 131° |
| 2026-05-03 20:36 | -33.31767 | -61.06737 | 37029 ft | 498 kts | 131° |
| 2026-05-03 20:37 | -33.35634 | -60.99890 | 37038 ft | 498 kts | 131° |
| 2026-05-03 20:37 | -33.39460 | -60.93023 | 37028 ft | 497 kts | 130° |
| 2026-05-03 20:38 | -33.43260 | -60.86139 | 37020 ft | 496 kts | 131° |
| 2026-05-03 20:38 | -33.47058 | -60.79284 | 37023 ft | 495 kts | 130° |
| 2026-05-03 20:39 | -33.50879 | -60.72404 | 37025 ft | 495 kts | 131° |
| 2026-05-03 20:39 | -33.54695 | -60.65536 | 37036 ft | 496 kts | 131° |
| 2026-05-03 20:40 | -33.58512 | -60.58677 | 37037 ft | 496 kts | 131° |
| 2026-05-03 20:40 | -33.62330 | -60.51822 | 37026 ft | 494 kts | 131° |
| 2026-05-03 20:41 | -33.66073 | -60.45093 | 37007 ft | 476 kts | 131° |
| 2026-05-03 20:41 | -33.69704 | -60.38585 | 37014 ft | 465 kts | 131° |
| 2026-05-03 20:42 | -33.73320 | -60.32143 | 37009 ft | 465 kts | 131° |
| 2026-05-03 20:42 | -33.76928 | -60.25685 | 37008 ft | 467 kts | 131° |
| 2026-05-03 20:43 | -33.80528 | -60.19253 | 36073 ft | 467 kts | 131° |
| 2026-05-03 20:43 | -33.82340 | -60.16017 | 34989 ft | 469 kts | 131° |
| 2026-05-03 20:43 | -33.84140 | -60.12768 | 34363 ft | 468 kts | 130° |
| 2026-05-03 20:43 | -33.85931 | -60.09507 | 33818 ft | 470 kts | 130° |
| 2026-05-03 20:44 | -33.87738 | -60.06235 | 33277 ft | 472 kts | 130° |
| 2026-05-03 20:44 | -33.89561 | -60.02939 | 32708 ft | 476 kts | 130° |
| 2026-05-03 20:44 | -33.91395 | -59.99625 | 32137 ft | 479 kts | 130° |
| 2026-05-03 20:44 | -33.93237 | -59.96297 | 31570 ft | 481 kts | 130° |
| 2026-05-03 20:45 | -33.95099 | -59.92935 | 31081 ft | 480 kts | 130° |
| 2026-05-03 20:45 | -33.98802 | -59.86251 | 31025 ft | 482 kts | 130° |
| 2026-05-03 20:46 | -34.02522 | -59.79545 | 31029 ft | 482 kts | 130° |
| 2026-05-03 20:46 | -34.04371 | -59.76209 | 30668 ft | 481 kts | 130° |
| 2026-05-03 20:46 | -34.06240 | -59.72852 | 30101 ft | 482 kts | 130° |
| 2026-05-03 20:46 | -34.08103 | -59.69506 | 29567 ft | 482 kts | 130° |
| 2026-05-03 20:47 | -34.09979 | -59.66142 | 29019 ft | 484 kts | 129° |
| 2026-05-03 20:47 | -34.11859 | -59.62759 | 28482 ft | 486 kts | 129° |
| 2026-05-03 20:47 | -34.13744 | -59.59371 | 27944 ft | 488 kts | 129° |
| 2026-05-03 20:47 | -34.15632 | -59.55980 | 27408 ft | 489 kts | 129° |
| 2026-05-03 20:48 | -34.17532 | -59.52571 | 26819 ft | 492 kts | 129° |
| 2026-05-03 20:48 | -34.19439 | -59.49151 | 26166 ft | 494 kts | 129° |
| 2026-05-03 20:48 | -34.21353 | -59.45719 | 25534 ft | 494 kts | 128° |
| 2026-05-03 20:48 | -34.23256 | -59.42282 | 24877 ft | 492 kts | 128° |
| 2026-05-03 20:49 | -34.25074 | -59.38808 | 24238 ft | 489 kts | 126° |
| 2026-05-03 20:49 | -34.26856 | -59.35338 | 23604 ft | 484 kts | 126° |
| 2026-05-03 20:49 | -34.28622 | -59.31913 | 22982 ft | 480 kts | 126° |
| 2026-05-03 20:49 | -34.30379 | -59.28525 | 22377 ft | 475 kts | 126° |
| 2026-05-03 20:50 | -34.32126 | -59.25170 | 21767 ft | 470 kts | 126° |
| 2026-05-03 20:50 | -34.33859 | -59.21850 | 21152 ft | 466 kts | 126° |
| 2026-05-03 20:50 | -34.35538 | -59.18529 | 20525 ft | 463 kts | 121° |
| 2026-05-03 20:50 | -34.36927 | -59.15032 | 19934 ft | 462 kts | 117° |
| 2026-05-03 20:51 | -34.38211 | -59.11500 | 19307 ft | 458 kts | 116° |
| 2026-05-03 20:51 | -34.39482 | -59.08005 | 18691 ft | 453 kts | 117° |
| 2026-05-03 20:51 | -34.40754 | -59.04546 | 18061 ft | 449 kts | 117° |
| 2026-05-03 20:51 | -34.42020 | -59.01132 | 17420 ft | 444 kts | 117° |
| 2026-05-03 20:52 | -34.43269 | -58.97775 | 16981 ft | 432 kts | 117° |
| 2026-05-03 20:52 | -34.44485 | -58.94517 | 16573 ft | 420 kts | 117° |
| 2026-05-03 20:52 | -34.45674 | -58.91341 | 16177 ft | 409 kts | 117° |
| 2026-05-03 20:52 | -34.46837 | -58.88243 | 15776 ft | 401 kts | 117° |
| 2026-05-03 20:53 | -34.47977 | -58.85204 | 15384 ft | 393 kts | 117° |
| 2026-05-03 20:53 | -34.49097 | -58.82221 | 14996 ft | 387 kts | 118° |
| 2026-05-03 20:53 | -34.50200 | -58.79284 | 14605 ft | 381 kts | 118° |
| 2026-05-03 20:53 | -34.51290 | -58.76383 | 14029 ft | 374 kts | 118° |
| 2026-05-03 20:54 | -34.52342 | -58.73578 | 13518 ft | 360 kts | 118° |
| 2026-05-03 20:54 | -34.54348 | -58.68256 | 12517 ft | 336 kts | 117° |
| 2026-05-03 20:54 | -34.55308 | -58.65718 | 11972 ft | 329 kts | 117° |
| 2026-05-03 20:55 | -34.56250 | -58.63226 | 11328 ft | 325 kts | 116° |
| 2026-05-03 20:55 | -34.57180 | -58.60757 | 10679 ft | 321 kts | 116° |
| 2026-05-03 20:55 | -34.58102 | -58.58316 | 10026 ft | 318 kts | 116° |
| 2026-05-03 20:55 | -34.59019 | -58.55895 | 9370 ft | 316 kts | 115° |
| 2026-05-03 20:56 | -34.59926 | -58.53491 | 8706 ft | 314 kts | 115° |
| 2026-05-03 20:56 | -34.60829 | -58.51100 | 8045 ft | 311 kts | 115° |
| 2026-05-03 20:56 | -34.61725 | -58.48732 | 7400 ft | 309 kts | 114° |
| 2026-05-03 20:56 | -34.62610 | -58.46392 | 6891 ft | 299 kts | 114° |
| 2026-05-03 20:57 | -34.63453 | -58.44157 | 6519 ft | 287 kts | 115° |
| 2026-05-03 20:57 | -34.64271 | -58.41992 | 6023 ft | 278 kts | 115° |
| 2026-05-03 20:57 | -34.65059 | -58.39912 | 5637 ft | 266 kts | 115° |
| 2026-05-03 20:57 | -34.65816 | -58.37919 | 5249 ft | 255 kts | 115° |
| 2026-05-03 20:58 | -34.66543 | -58.36001 | 4868 ft | 246 kts | 114° |
| 2026-05-03 20:58 | -34.67259 | -58.34113 | 4468 ft | 247 kts | 114° |
| 2026-05-03 20:58 | -34.67981 | -58.32218 | 4068 ft | 248 kts | 114° |
| 2026-05-03 20:58 | -34.68703 | -58.30320 | 3669 ft | 247 kts | 113° |
| 2026-05-03 20:59 | -34.69420 | -58.28434 | 3267 ft | 246 kts | 113° |
| 2026-05-03 20:59 | -34.70027 | -58.26526 | 3099 ft | 239 kts | 95° |
| 2026-05-03 20:59 | -34.69894 | -58.24593 | 3119 ft | 222 kts | 62° |
| 2026-05-03 20:59 | -34.69017 | -58.23215 | 3116 ft | 196 kts | 27° |
| 2026-05-03 21:00 | -34.67785 | -58.22775 | 2852 ft | 181 kts | 354° |
| 2026-05-03 21:00 | -34.66969 | -58.22929 | 2609 ft | 176 kts | 346° |
| 2026-05-03 21:00 | -34.65392 | -58.23410 | 1990 ft | 175 kts | 338° |
| 2026-05-03 21:00 | -34.64461 | -58.24302 | 1807 ft | 170 kts | 307° |
| 2026-05-03 21:01 | -34.63848 | -58.25520 | 1793 ft | 168 kts | 301° |
| 2026-05-03 21:01 | -34.63315 | -58.26770 | 1815 ft | 165 kts | 299° |
| 2026-05-03 21:01 | -34.62807 | -58.28014 | 1799 ft | 163 kts | 298° |
| 2026-05-03 21:01 | -34.62310 | -58.29254 | 1802 ft | 163 kts | 298° |
| 2026-05-03 21:02 | -34.61818 | -58.30495 | 1796 ft | 163 kts | 298° |
| 2026-05-03 21:02 | -34.61310 | -58.31739 | 1733 ft | 167 kts | 301° |
| 2026-05-03 21:02 | -34.60767 | -58.32925 | 1547 ft | 155 kts | 303° |
| 2026-05-03 21:02 | -34.60179 | -58.34044 | 1271 ft | 159 kts | 308° |
| 2026-05-03 21:03 | -34.59519 | -58.35127 | 1069 ft | 161 kts | 307° |
| 2026-05-03 21:03 | -34.58878 | -58.36249 | 875 ft | 161 kts | 307° |
| 2026-05-03 21:03 | -34.58244 | -58.37368 | 692 ft | 162 kts | 307° |
| 2026-05-03 21:03 | -34.57621 | -58.38526 | 446 ft | 163 kts | 305° |
| 2026-05-03 21:04 | -34.57007 | -58.39632 | 215 ft | 154 kts | 306° |
| 2026-05-03 21:04 | -34.56402 | -58.40715 | 53 ft | 157 kts | 304° |
| 2026-05-03 21:04 | -34.55843 | -58.41719 | 30 ft | 113 kts | 304° |
| 2026-05-03 21:04 | -34.55529 | -58.42278 | 30 ft | 50 kts | 314° |
| 2026-05-03 21:05 | -34.55467 | -58.42395 | 29 ft | 7 kts | 226° |
| 2026-05-03 21:05 | -34.55530 | -58.42310 | 29 ft | 23 kts | 118° |
| 2026-05-03 21:05 | -34.55654 | -58.42067 | 30 ft | 33 kts | 123° |
| 2026-05-03 21:05 | -34.55670 | -58.41923 | 29 ft | 10 kts | 54° |
| 2026-05-03 21:06 | -34.55631 | -58.41878 | 30 ft | 5 kts | 39° |
| 2026-05-03 21:06 | -34.55628 | -58.41874 | 29 ft | 1 kts | 39° |
| 2026-05-03 21:06 | -34.55616 | -58.41862 | 29 ft | 3 kts | 42° |
| 2026-05-03 21:06 | -34.55597 | -58.41839 | 29 ft | 4 kts | 48° |
| 2026-05-03 21:07 | -34.55570 | -58.41782 | 29 ft | 9 kts | 54° |
| 2026-05-03 21:07 | -34.55544 | -58.41750 | 29 ft | 2 kts | 38° |
| 2026-05-03 21:07 | -34.55540 | -58.41747 | 29 ft | 0 kts | 38° |
| 2026-05-03 21:07 | -34.55534 | -58.41741 | 29 ft | 0 kts | 37° |